createdAt,value
2022-12-11T00:00:08.119Z,-1.00
2022-12-11T00:02:35.145Z,-1.00
2022-12-11T00:05:01.898Z,-0.90
2022-12-11T00:07:28.581Z,-0.90
2022-12-11T00:09:55.226Z,-0.90
2022-12-11T00:12:21.868Z,-0.90
2022-12-11T00:14:48.590Z,-0.90
2022-12-11T00:17:15.210Z,-0.90
2022-12-11T00:19:41.867Z,-0.90
2022-12-11T00:22:08.526Z,-0.90
2022-12-11T00:24:35.140Z,-0.90
2022-12-11T00:27:01.909Z,-0.90
2022-12-11T00:29:28.561Z,-1.00
2022-12-11T00:31:55.273Z,-0.90
2022-12-11T00:34:21.991Z,-0.90
2022-12-11T00:36:48.749Z,-1.00
2022-12-11T00:39:15.421Z,-0.90
2022-12-11T00:41:42.080Z,-0.90
2022-12-11T00:44:08.910Z,-0.90
2022-12-11T00:46:35.626Z,-0.90
2022-12-11T00:49:02.311Z,-0.80
2022-12-11T00:51:29.322Z,-0.90
2022-12-11T00:53:55.986Z,-0.80
2022-12-11T00:56:23.266Z,-0.90
2022-12-11T00:58:50.146Z,-0.90
2022-12-11T01:01:21.077Z,-0.90
2022-12-11T01:03:49.002Z,-0.90
2022-12-11T01:06:17.627Z,-0.90
2022-12-11T01:08:45.126Z,-0.90
2022-12-11T01:11:13.716Z,-0.80
2022-12-11T01:13:41.142Z,-0.80
2022-12-11T01:16:13.196Z,-0.90
2022-12-11T01:18:40.371Z,-0.90
2022-12-11T01:21:13.303Z,-0.80
2022-12-11T01:23:40.552Z,-0.80
2022-12-11T01:26:11.346Z,-0.90
2022-12-11T01:28:37.908Z,-0.80
2022-12-11T01:31:09.483Z,-0.80
2022-12-11T01:33:36.615Z,-0.80
2022-12-11T01:36:08.841Z,-0.80
2022-12-11T01:38:35.495Z,-0.80
2022-12-11T01:41:02.134Z,-0.80
2022-12-11T01:43:29.040Z,-0.80
2022-12-11T01:45:55.788Z,-0.80
2022-12-11T01:48:32.923Z,-0.80
2022-12-11T01:51:03.452Z,-0.80
2022-12-11T01:53:43.359Z,-0.80
2022-12-11T01:56:10.675Z,-0.80
2022-12-11T01:58:43.819Z,-0.80
2022-12-11T02:01:16.842Z,-0.80
2022-12-11T02:03:43.679Z,-0.80
2022-12-11T02:06:50.336Z,-0.80
2022-12-11T02:09:21.759Z,-0.90
2022-12-11T02:12:01.959Z,-0.90
2022-12-11T02:14:58.105Z,-0.90
2022-12-11T02:17:47.533Z,-0.90
2022-12-11T02:20:25.466Z,-0.90
2022-12-11T02:23:03.773Z,-0.90
2022-12-11T02:26:11.041Z,-0.90
2022-12-11T02:28:55.696Z,-0.90
2022-12-11T02:31:37.532Z,-0.90
2022-12-11T02:34:29.202Z,-1.00
2022-12-11T02:37:03.661Z,-1.00
2022-12-11T02:39:33.252Z,-1.00
2022-12-11T02:42:00.671Z,-1.00
2022-12-11T02:44:30.466Z,-1.10
2022-12-11T02:46:58.615Z,-1.10
2022-12-11T02:49:27.019Z,-1.10
2022-12-11T02:51:56.544Z,-1.10
2022-12-11T02:54:27.694Z,-1.00
2022-12-11T02:57:00.891Z,-1.00
2022-12-11T02:59:35.738Z,-1.00
2022-12-11T03:02:03.548Z,-1.10
2022-12-11T03:04:31.589Z,-1.10
2022-12-11T03:07:02.439Z,-1.10
2022-12-11T03:09:29.279Z,-1.10
2022-12-11T03:11:55.969Z,-1.10
2022-12-11T03:14:22.654Z,-1.10
2022-12-11T03:17:04.632Z,-1.10
2022-12-11T03:20:04.714Z,-1.00
2022-12-11T03:22:37.402Z,-1.00
2022-12-11T03:25:20.500Z,-1.10
2022-12-11T03:28:12.513Z,-1.10
2022-12-11T03:30:41.870Z,-1.20
2022-12-11T03:33:15.459Z,-1.10
2022-12-11T03:35:53.878Z,-1.00
2022-12-11T03:38:46.865Z,-1.10
2022-12-11T03:41:15.268Z,-1.10
2022-12-11T03:43:42.149Z,-1.10
2022-12-11T03:46:10.032Z,-1.10
2022-12-11T03:48:41.726Z,-1.10
2022-12-11T03:51:09.142Z,-1.20
2022-12-11T03:53:37.302Z,-1.20
2022-12-11T03:56:06.943Z,-1.20
2022-12-11T03:58:33.724Z,-1.20
2022-12-11T04:01:00.641Z,-1.20
2022-12-11T04:03:27.486Z,-1.10
2022-12-11T04:05:55.660Z,-1.00
2022-12-11T04:08:23.382Z,-1.20
2022-12-11T04:11:09.580Z,-1.20
2022-12-11T04:13:37.022Z,-1.20
2022-12-11T04:16:04.056Z,-1.10
2022-12-11T04:18:49.435Z,-1.10
2022-12-11T04:21:39.260Z,-1.00
2022-12-11T04:24:16.215Z,-1.10
2022-12-11T04:26:47.202Z,-1.10
2022-12-11T04:29:14.827Z,-1.10
2022-12-11T04:31:41.461Z,-1.10
2022-12-11T04:34:08.201Z,-1.00
2022-12-11T04:36:35.726Z,-1.00
2022-12-11T04:39:03.175Z,-1.10
2022-12-11T04:41:29.783Z,-1.10
2022-12-11T04:43:56.494Z,-1.20
2022-12-11T04:46:24.572Z,-1.20
2022-12-11T04:48:57.021Z,-1.20
2022-12-11T04:51:24.915Z,-1.10
2022-12-11T04:53:51.616Z,-1.20
2022-12-11T04:56:18.363Z,-1.20
2022-12-11T04:58:45.617Z,-1.20
2022-12-11T05:01:20.805Z,-1.20
2022-12-11T05:03:48.281Z,-1.20
2022-12-11T05:06:14.987Z,-1.20
2022-12-11T05:08:43.136Z,-1.20
2022-12-11T05:11:13.524Z,-1.20
2022-12-11T05:13:40.753Z,-1.20
2022-12-11T05:16:09.635Z,-1.20
2022-12-11T05:18:36.325Z,-1.10
2022-12-11T05:21:08.689Z,-1.20
2022-12-11T05:23:35.866Z,-1.20
2022-12-11T05:26:30.464Z,-1.20
2022-12-11T05:28:57.204Z,-1.20
2022-12-11T05:31:26.397Z,-1.20
2022-12-11T05:33:53.575Z,-1.20
2022-12-11T05:36:34.166Z,-1.20
2022-12-11T05:39:02.005Z,-1.20
2022-12-11T05:41:31.173Z,-1.30
2022-12-11T05:43:57.941Z,-1.30
2022-12-11T05:46:27.178Z,-1.30
2022-12-11T05:48:59.919Z,-1.30
2022-12-11T05:51:28.047Z,-1.30
2022-12-11T05:53:55.848Z,-1.30
2022-12-11T05:56:32.144Z,-1.30
2022-12-11T05:59:00.175Z,-1.40
2022-12-11T06:01:36.387Z,-1.30
2022-12-11T06:04:03.492Z,-1.40
2022-12-11T06:06:30.218Z,-1.40
2022-12-11T06:08:58.531Z,-1.30
2022-12-11T06:11:27.029Z,-1.40
2022-12-11T06:13:54.186Z,-1.40
2022-12-11T06:16:21.535Z,-1.40
2022-12-11T06:18:48.427Z,-1.40
2022-12-11T06:21:24.038Z,-1.40
2022-12-11T06:23:54.093Z,-1.40
2022-12-11T06:26:21.427Z,-1.50
2022-12-11T06:28:48.607Z,-1.60
2022-12-11T06:31:15.726Z,-1.60
2022-12-11T06:33:42.919Z,-1.80
2022-12-11T06:36:12.727Z,-1.70
2022-12-11T06:38:39.519Z,-1.70
2022-12-11T06:41:08.179Z,-1.80
2022-12-11T06:43:36.748Z,-1.80
2022-12-11T06:46:11.620Z,-1.80
2022-12-11T06:48:38.784Z,-1.90
2022-12-11T06:51:06.876Z,-2.00
2022-12-11T06:53:33.652Z,-2.00
2022-12-11T06:56:12.504Z,-2.10
2022-12-11T06:58:40.731Z,-2.10
2022-12-11T07:01:20.281Z,-2.20
2022-12-11T07:03:47.430Z,-2.30
2022-12-11T07:06:14.952Z,-2.30
2022-12-11T07:08:41.992Z,-2.30
2022-12-11T07:11:12.385Z,-2.30
2022-12-11T07:13:39.099Z,-2.40
2022-12-11T07:16:10.612Z,-2.40
2022-12-11T07:18:39.083Z,-2.40
2022-12-11T07:21:06.759Z,-2.50
2022-12-11T07:23:34.262Z,-2.40
2022-12-11T07:26:05.816Z,-2.40
2022-12-11T07:28:33.040Z,-2.40
2022-12-11T07:30:59.846Z,-2.40
2022-12-11T07:33:26.489Z,-2.40
2022-12-11T07:35:53.126Z,-2.40
2022-12-11T07:38:19.793Z,-2.30
2022-12-11T07:40:46.446Z,-2.30
2022-12-11T07:43:13.074Z,-2.40
2022-12-11T07:45:39.751Z,-2.40
2022-12-11T07:48:06.530Z,-2.30
2022-12-11T07:50:39.489Z,-2.30
2022-12-11T07:53:07.680Z,-2.30
2022-12-11T07:55:34.440Z,-2.30
2022-12-11T07:58:01.075Z,-2.20
2022-12-11T08:00:27.747Z,-2.20
2022-12-11T08:02:54.415Z,-2.20
2022-12-11T08:05:21.310Z,-2.20
2022-12-11T08:07:47.967Z,-2.10
2022-12-11T08:10:14.703Z,-2.10
2022-12-11T08:12:41.329Z,-2.10
2022-12-11T08:15:08.740Z,-2.10
2022-12-11T08:17:40.056Z,-2.10
2022-12-11T08:20:08.323Z,-2.00
2022-12-11T08:22:34.998Z,-2.00
2022-12-11T08:25:01.800Z,-2.00
2022-12-11T08:27:28.426Z,-1.90
2022-12-11T08:29:55.039Z,-1.90
2022-12-11T08:32:21.667Z,-1.90
2022-12-11T08:34:48.514Z,-1.90
2022-12-11T08:37:15.203Z,-2.00
2022-12-11T08:39:43.324Z,-2.00
2022-12-11T08:42:10.034Z,-2.00
2022-12-11T08:44:36.677Z,-2.00
2022-12-11T08:47:03.419Z,-2.00
2022-12-11T08:49:34.338Z,-1.90
2022-12-11T08:52:02.941Z,-2.00
2022-12-11T08:54:29.595Z,-1.90
2022-12-11T08:56:58.107Z,-1.90
2022-12-11T08:59:25.752Z,-1.90
2022-12-11T09:01:52.530Z,-1.90
2022-12-11T09:04:19.344Z,-1.80
2022-12-11T09:06:45.974Z,-1.80
2022-12-11T09:09:12.764Z,-1.90
2022-12-11T09:11:39.426Z,-1.90
2022-12-11T09:14:08.183Z,-1.90
2022-12-11T09:16:40.284Z,-1.90
2022-12-11T09:19:08.353Z,-1.90
2022-12-11T09:21:35.076Z,-1.90
2022-12-11T09:24:01.914Z,-1.80
2022-12-11T09:26:30.118Z,-1.60
2022-12-11T09:28:57.747Z,-1.60
2022-12-11T09:31:29.656Z,-1.60
2022-12-11T09:33:58.750Z,-1.50
2022-12-11T09:36:25.843Z,-1.50
2022-12-11T09:38:52.555Z,-1.50
2022-12-11T09:41:22.055Z,-1.40
2022-12-11T09:44:07.780Z,-1.40
2022-12-11T09:46:35.611Z,-1.40
2022-12-11T09:49:04.658Z,-1.40
2022-12-11T09:51:39.932Z,-1.40
2022-12-11T09:54:06.848Z,-1.30
2022-12-11T09:56:41.445Z,-1.30
2022-12-11T09:59:26.086Z,-1.30
2022-12-11T10:01:57.691Z,-1.40
2022-12-11T10:04:52.211Z,-1.30
2022-12-11T10:08:00.638Z,-1.30
2022-12-11T10:10:30.408Z,-1.40
2022-12-11T10:13:15.153Z,-1.40
2022-12-11T10:15:59.707Z,-1.20
2022-12-11T10:18:29.574Z,-1.20
2022-12-11T10:21:00.743Z,-1.20
2022-12-11T10:23:42.717Z,-1.00
2022-12-11T10:26:29.202Z,-1.00
2022-12-11T10:29:12.632Z,-1.20
2022-12-11T10:31:57.798Z,-1.30
2022-12-11T10:34:36.431Z,-1.30
2022-12-11T10:37:03.374Z,-1.30
2022-12-11T10:39:30.212Z,-1.20
2022-12-11T10:41:57.365Z,-1.10
2022-12-11T10:44:28.333Z,-1.00
2022-12-11T10:47:15.212Z,-0.80
2022-12-11T10:49:58.257Z,-0.70
2022-12-11T10:52:32.152Z,-0.60
2022-12-11T10:55:03.396Z,-0.60
2022-12-11T10:57:32.759Z,-0.40
2022-12-11T11:00:00.455Z,-0.50
2022-12-11T11:02:41.205Z,-0.40
2022-12-11T11:05:17.895Z,-0.20
2022-12-11T11:07:44.699Z,-0.40
2022-12-11T11:10:11.308Z,-0.40
2022-12-11T11:12:49.527Z,-0.40
2022-12-11T11:15:26.407Z,-0.40
2022-12-11T11:18:00.568Z,-0.40
2022-12-11T11:20:30.782Z,-0.40
2022-12-11T11:23:00.966Z,-0.40
2022-12-11T11:25:32.919Z,-0.40
2022-12-11T11:28:05.501Z,-0.50
2022-12-11T11:30:36.321Z,-0.60
2022-12-11T11:33:05.875Z,-0.60
2022-12-11T11:35:33.078Z,-0.50
2022-12-11T11:38:13.118Z,-0.50
2022-12-11T11:40:49.789Z,-0.30
2022-12-11T11:43:29.165Z,-0.30
2022-12-11T11:46:08.472Z,-0.40
2022-12-11T11:48:51.887Z,-0.50
2022-12-11T11:51:39.085Z,-0.40
2022-12-11T11:54:29.392Z,-0.30
2022-12-11T11:56:57.272Z,-0.40
2022-12-11T11:59:31.943Z,-0.40
2022-12-11T12:01:59.588Z,-0.60
2022-12-11T12:04:33.729Z,-0.70
2022-12-11T12:07:17.557Z,-0.50
2022-12-11T12:09:56.150Z,-0.40
2022-12-11T12:12:51.672Z,-0.30
2022-12-11T12:15:48.679Z,-0.40
2022-12-11T12:18:35.363Z,-0.40
2022-12-11T12:21:36.775Z,-0.40
2022-12-11T12:24:14.952Z,-0.40
2022-12-11T12:26:53.324Z,-0.50
2022-12-11T12:29:44.385Z,-0.40
2022-12-11T12:32:23.433Z,-0.30
2022-12-11T12:35:00.343Z,-0.40
2022-12-11T12:37:48.994Z,-0.30
2022-12-11T12:40:55.534Z,-0.20
2022-12-11T12:43:37.413Z,-0.20
2022-12-11T12:46:14.060Z,-0.20
2022-12-11T12:48:40.808Z,-0.20
2022-12-11T12:51:12.651Z,0.00
2022-12-11T12:53:41.452Z,0.00
2022-12-11T12:56:11.484Z,0.00
2022-12-11T12:58:46.229Z,-0.10
2022-12-11T13:01:12.864Z,-0.10
2022-12-11T13:04:05.561Z,-0.20
2022-12-11T13:06:42.721Z,-0.10
2022-12-11T13:09:24.771Z,-0.20
2022-12-11T13:11:54.962Z,-0.20
2022-12-11T13:14:30.190Z,-0.20
2022-12-11T13:17:37.557Z,-0.30
2022-12-11T13:20:17.967Z,-0.30
2022-12-11T13:23:07.754Z,-0.50
2022-12-11T13:25:48.381Z,-0.50
2022-12-11T13:28:27.703Z,-0.50
2022-12-11T13:31:07.546Z,-0.50
2022-12-11T13:33:41.810Z,-0.40
2022-12-11T13:36:17.838Z,-0.50
2022-12-11T13:38:54.819Z,-0.50
2022-12-11T13:41:21.855Z,-0.60
2022-12-11T13:43:50.458Z,-0.40
2022-12-11T13:46:26.434Z,-0.50
2022-12-11T13:48:57.202Z,-0.50
2022-12-11T13:51:24.896Z,-0.50
2022-12-11T13:54:17.362Z,-0.60
2022-12-11T13:57:15.514Z,-0.50
2022-12-11T13:59:48.654Z,-0.50
2022-12-11T14:02:22.884Z,-0.60
2022-12-11T14:04:56.841Z,-0.70
2022-12-11T14:07:35.528Z,-0.70
2022-12-11T14:10:08.020Z,-0.60
2022-12-11T14:12:36.440Z,-0.60
2022-12-11T14:15:04.866Z,-0.70
2022-12-11T14:17:34.666Z,-0.70
2022-12-11T14:20:07.330Z,-0.80
2022-12-11T14:22:34.134Z,-0.80
2022-12-11T14:25:03.625Z,-0.80
2022-12-11T14:27:30.614Z,-0.80
2022-12-11T14:29:57.422Z,-0.70
2022-12-11T14:32:38.697Z,-0.70
2022-12-11T14:35:10.704Z,-0.80
2022-12-11T14:37:37.585Z,-0.90
2022-12-11T14:40:09.204Z,-1.00
2022-12-11T14:42:57.096Z,-1.10
2022-12-11T14:45:34.493Z,-1.10
2022-12-11T14:48:05.865Z,-1.20
2022-12-11T14:50:43.511Z,-1.20
2022-12-11T14:53:15.744Z,-1.20
2022-12-11T14:55:42.919Z,-1.20
2022-12-11T14:58:26.605Z,-1.10
2022-12-11T15:01:05.386Z,-1.10
2022-12-11T15:03:37.319Z,-1.10
2022-12-11T15:06:34.729Z,-1.10
2022-12-11T15:09:27.613Z,-1.10
2022-12-11T15:11:57.221Z,-1.20
2022-12-11T15:14:25.732Z,-1.20
2022-12-11T15:16:54.701Z,-1.20
2022-12-11T15:19:34.553Z,-1.10
2022-12-11T15:22:04.612Z,-1.10
2022-12-11T15:24:39.990Z,-1.20
2022-12-11T15:27:14.318Z,-1.30
2022-12-11T15:29:41.463Z,-1.30
2022-12-11T15:32:08.034Z,-1.30
2022-12-11T15:34:56.182Z,-1.30
2022-12-11T15:37:30.352Z,-1.30
2022-12-11T15:39:58.954Z,-1.40
2022-12-11T15:42:38.959Z,-1.40
2022-12-11T15:45:07.421Z,-1.40
2022-12-11T15:47:34.083Z,-1.40
2022-12-11T15:50:16.277Z,-1.40
2022-12-11T15:52:43.683Z,-1.40
2022-12-11T15:55:11.333Z,-1.30
2022-12-11T15:57:39.630Z,-1.30
2022-12-11T16:00:07.232Z,-1.30
2022-12-11T16:02:34.008Z,-1.30
2022-12-11T16:05:00.976Z,-1.30
2022-12-11T16:07:27.759Z,-1.30
2022-12-11T16:09:54.522Z,-1.30
2022-12-11T16:12:21.217Z,-1.30
2022-12-11T16:14:47.886Z,-1.30
2022-12-11T16:17:15.869Z,-1.40
2022-12-11T16:19:43.439Z,-1.30
2022-12-11T16:22:10.874Z,-1.30
2022-12-11T16:24:37.590Z,-1.30
2022-12-11T16:27:06.300Z,-1.30
2022-12-11T16:29:41.276Z,-1.30
2022-12-11T16:32:08.939Z,-1.40
2022-12-11T16:34:37.519Z,-1.40
2022-12-11T16:37:05.728Z,-1.30
2022-12-11T16:39:32.754Z,-1.30
2022-12-11T16:41:59.383Z,-1.40
2022-12-11T16:44:27.375Z,-1.40
2022-12-11T16:46:56.331Z,-1.30
2022-12-11T16:49:23.042Z,-1.40
2022-12-11T16:51:49.796Z,-1.40
2022-12-11T16:54:17.313Z,-1.40
2022-12-11T16:56:44.837Z,-1.40
2022-12-11T16:59:12.845Z,-1.50
2022-12-11T17:01:39.791Z,-1.40
2022-12-11T17:04:06.809Z,-1.40
2022-12-11T17:06:33.453Z,-1.40
2022-12-11T17:09:00.109Z,-1.40
2022-12-11T17:11:27.061Z,-1.40
2022-12-11T17:13:55.603Z,-1.40
2022-12-11T17:16:22.558Z,-1.50
2022-12-11T17:18:49.169Z,-1.50
2022-12-11T17:21:17.975Z,-1.50
2022-12-11T17:23:45.142Z,-1.50
2022-12-11T17:26:12.272Z,-1.50
2022-12-11T17:28:39.891Z,-1.50
2022-12-11T17:31:13.919Z,-1.60
2022-12-11T17:33:40.729Z,-1.60
2022-12-11T17:36:08.527Z,-1.60
2022-12-11T17:38:35.739Z,-1.60
2022-12-11T17:41:06.557Z,-1.60
2022-12-11T17:43:33.567Z,-1.50
2022-12-11T17:46:00.669Z,-1.50
2022-12-11T17:48:27.951Z,-1.60
2022-12-11T17:50:54.998Z,-1.70
2022-12-11T17:53:22.526Z,-1.70
2022-12-11T17:55:51.600Z,-1.70
2022-12-11T17:58:22.914Z,-1.80
2022-12-11T18:00:54.141Z,-1.80
2022-12-11T18:03:21.992Z,-1.80
2022-12-11T18:05:51.197Z,-1.80
2022-12-11T18:08:26.573Z,-1.80
2022-12-11T18:10:54.284Z,-1.90
2022-12-11T18:13:21.871Z,-1.90
2022-12-11T18:16:03.497Z,-1.90
2022-12-11T18:18:30.338Z,-2.00
2022-12-11T18:20:57.051Z,-2.00
2022-12-11T18:23:24.487Z,-2.10
2022-12-11T18:25:51.338Z,-2.00
2022-12-11T18:28:18.095Z,-2.00
2022-12-11T18:30:44.908Z,-2.10
2022-12-11T18:33:13.017Z,-2.10
2022-12-11T18:35:40.623Z,-2.10
2022-12-11T18:38:07.689Z,-2.10
2022-12-11T18:40:34.442Z,-2.10
2022-12-11T18:43:01.073Z,-2.20
2022-12-11T18:45:27.804Z,-2.20
2022-12-11T18:47:56.422Z,-2.30
2022-12-11T18:50:23.072Z,-2.30
2022-12-11T18:52:56.922Z,-2.30
2022-12-11T18:55:23.682Z,-2.40
2022-12-11T18:57:50.399Z,-2.40
2022-12-11T19:00:17.856Z,-2.40
2022-12-11T19:02:44.870Z,-2.50
2022-12-11T19:05:12.522Z,-2.50
2022-12-11T19:07:39.389Z,-2.50
2022-12-11T19:10:06.670Z,-2.50
2022-12-11T19:12:34.127Z,-2.50
2022-12-11T19:15:00.811Z,-2.50
2022-12-11T19:17:27.518Z,-2.50
2022-12-11T19:19:54.187Z,-2.50
2022-12-11T19:22:20.895Z,-2.50
2022-12-11T19:24:47.591Z,-2.50
2022-12-11T19:27:14.301Z,-2.50
2022-12-11T19:29:41.253Z,-2.50
2022-12-11T19:32:08.174Z,-2.50
2022-12-11T19:34:34.883Z,-2.50
2022-12-11T19:37:01.545Z,-2.40
2022-12-11T19:39:28.395Z,-2.50
2022-12-11T19:41:55.263Z,-2.40
2022-12-11T19:44:22.029Z,-2.40
2022-12-11T19:46:48.798Z,-2.40
2022-12-11T19:49:15.712Z,-2.30
2022-12-11T19:51:43.017Z,-2.40
2022-12-11T19:54:13.033Z,-2.40
2022-12-11T19:56:39.714Z,-2.40
2022-12-11T19:59:08.455Z,-2.40
2022-12-11T20:01:37.143Z,-2.30
2022-12-11T20:04:07.060Z,-2.40
2022-12-11T20:06:35.570Z,-2.30
2022-12-11T20:09:06.001Z,-2.30
2022-12-11T20:11:33.202Z,-2.30
2022-12-11T20:14:00.346Z,-2.30
2022-12-11T20:16:46.245Z,-2.30
2022-12-11T20:19:13.785Z,-2.20
2022-12-11T20:21:40.760Z,-2.10
2022-12-11T20:24:08.051Z,-2.20
2022-12-11T20:26:36.461Z,-2.20
2022-12-11T20:29:05.269Z,-2.30
2022-12-11T20:31:33.034Z,-2.20
2022-12-11T20:33:59.798Z,-2.30
2022-12-11T20:36:27.151Z,-2.30
2022-12-11T20:38:53.905Z,-2.30
2022-12-11T20:41:22.867Z,-2.40
2022-12-11T20:43:50.643Z,-2.40
2022-12-11T20:46:18.436Z,-2.40
2022-12-11T20:48:45.708Z,-2.40
2022-12-11T20:51:14.875Z,-2.40
2022-12-11T20:53:42.647Z,-2.40
2022-12-11T20:56:11.773Z,-2.40
2022-12-11T20:58:39.048Z,-2.30
2022-12-11T21:01:06.670Z,-2.30
2022-12-11T21:03:38.929Z,-2.30
2022-12-11T21:06:16.733Z,-2.40
2022-12-11T21:08:43.367Z,-2.40
2022-12-11T21:11:10.461Z,-2.40
2022-12-11T21:13:37.347Z,-2.40
2022-12-11T21:16:06.215Z,-2.30
2022-12-11T21:18:33.533Z,-2.40
2022-12-11T21:21:00.448Z,-2.40
2022-12-11T21:23:27.287Z,-2.40
2022-12-11T21:25:54.271Z,-2.50
2022-12-11T21:28:21.551Z,-2.50
2022-12-11T21:30:48.232Z,-2.60
2022-12-11T21:33:15.263Z,-2.60
2022-12-11T21:35:42.175Z,-2.60
2022-12-11T21:38:08.951Z,-2.60
2022-12-11T21:40:35.755Z,-2.70
2022-12-11T21:43:02.486Z,-2.70
2022-12-11T21:45:59.895Z,-2.80
2022-12-11T21:48:15.814Z,-2.80
2022-12-11T21:50:42.902Z,-2.80
2022-12-11T21:53:09.587Z,-2.80
2022-12-11T21:55:40.248Z,-2.80
2022-12-11T21:58:06.912Z,-2.90
2022-12-11T22:00:38.693Z,-2.90
2022-12-11T22:03:06.155Z,-2.90
2022-12-11T22:05:33.109Z,-2.90
2022-12-11T22:07:59.794Z,-2.90
2022-12-11T22:10:27.753Z,-2.90
2022-12-11T22:12:54.386Z,-2.90
2022-12-11T22:15:21.119Z,-2.80
2022-12-11T22:17:47.816Z,-2.70
2022-12-11T22:20:14.600Z,-2.60
2022-12-11T22:22:41.616Z,-2.70
2022-12-11T22:25:09.542Z,-2.70
2022-12-11T22:27:36.581Z,-2.80
2022-12-11T22:30:04.499Z,-2.90
2022-12-11T22:32:31.192Z,-2.80
2022-12-11T22:34:57.939Z,-2.80
2022-12-11T22:37:25.001Z,-2.80
2022-12-11T22:39:51.646Z,-2.80
2022-12-11T22:42:18.331Z,-3.00
2022-12-11T22:44:45.017Z,-2.90
2022-12-11T22:47:11.804Z,-2.90
2022-12-11T22:49:38.546Z,-2.90
2022-12-11T22:52:05.278Z,-2.80
2022-12-11T22:54:32.069Z,-2.90
2022-12-11T22:56:58.723Z,-2.90
2022-12-11T22:59:25.388Z,-2.90
2022-12-11T23:01:52.115Z,-2.80
2022-12-11T23:04:18.749Z,-2.80
2022-12-11T23:06:45.383Z,-2.80
2022-12-11T23:09:12.176Z,-2.80
2022-12-11T23:11:39.995Z,-2.80
2022-12-11T23:14:08.551Z,-2.80
2022-12-11T23:16:35.546Z,-2.80
2022-12-11T23:19:03.773Z,-2.80
2022-12-11T23:21:30.503Z,-2.70
2022-12-11T23:23:58.421Z,-2.70
2022-12-11T23:26:27.201Z,-2.70
2022-12-11T23:28:55.757Z,-2.80
2022-12-11T23:31:23.879Z,-2.80
2022-12-11T23:33:51.502Z,-2.80
2022-12-11T23:36:18.317Z,-2.90
2022-12-11T23:38:49.561Z,-2.90
2022-12-11T23:41:19.685Z,-2.90
2022-12-11T23:43:46.319Z,-2.90
2022-12-11T23:46:18.562Z,-2.80
2022-12-11T23:48:45.334Z,-2.70
2022-12-11T23:51:14.753Z,-2.70
2022-12-11T23:53:42.450Z,-2.70
2022-12-11T23:56:15.866Z,-2.80
2022-12-11T23:58:43.047Z,-2.80
